Zagreb, Croatia
Current Conditions -  °F | °C
As of 4:30 PM on Sunday 23 Nov 2014 (Local Time) from LDZA Reporting Station
Overcast Overcast  
Wind Chill: 41°   Ceiling: 1000
Heat Index: 41°   Visibility: 4mi
Dew Point: 37°   Wind: 1mph
Humidity: 87%   Direction: NA
Pressure: 30.39"   Gusts: NA
Location:  45.8°N, 15.97°E
Report Text: LDZA 231430Z VRB01KT 6000 OVC010 05/03 Q1029 BECMG 4000 BROVC008
Loading
Personal Weather Stations






























Interactive Weather Map New forecast layout! Learn more

10-Day Weather Forecast

Advertisements
Track Severe Weather on mobile